Time;durP1;ratioP1;P1;durP2;ratioP2;P2;SDS_P1;SDS_P2;PMS_P1;PMS_P2;Temp;Humidity;BMP_temperature;BMP_pressure;BME280_temperature;BME280_humidity;BME280_pressure;Samples;Min_cycle;Max_cycle;Signal;HPM_P1;HPM_P2
2021/08/31 00:02:08;;;;;;;17.38;9.55;;;;;;;;;;5072813;28;20520;-72
2021/08/31 00:04:34;;;;;;;15.15;9.73;;;;;;;;;;5074911;28;20021;-71
2021/08/31 00:07:00;;;;;;;16.90;10.10;;;;;;;;;;5075873;28;20048;-71
2021/08/31 00:09:26;;;;;;;17.10;9.88;;;;;;;;;;5076104;28;20051;-73
2021/08/31 00:11:52;;;;;;;14.30;9.65;;;;;;;;;;5075949;28;20036;-72
2021/08/31 00:14:18;;;;;;;15.45;9.27;;;;;;;;;;5076212;28;20099;-72
2021/08/31 00:16:45;;;;;;;14.93;9.57;;;;;;;;;;5075823;28;20120;-74
2021/08/31 00:19:11;;;;;;;16.33;9.10;;;;;;;;;;5075854;28;20020;-73
2021/08/31 00:21:37;;;;;;;14.30;9.18;;;;;;;;;;5075819;28;20367;-74
2021/08/31 00:24:04;;;;;;;15.02;8.50;;;;;;;;;;5075757;28;20017;-72
2021/08/31 00:26:30;;;;;;;15.68;9.52;;;;;;;;;;5075735;28;20025;-75
2021/08/31 00:28:56;;;;;;;17.85;9.27;;;;;;;;;;5075682;28;20024;-73
2021/08/31 00:31:22;;;;;;;15.82;10.05;;;;;;;;;;5074354;28;20036;-74
2021/08/31 00:33:48;;;;;;;14.38;9.02;;;;;;;;;;5075819;28;20107;-73
2021/08/31 00:36:14;;;;;;;17.45;10.55;;;;;;;;;;5075778;28;20109;-74
2021/08/31 00:38:40;;;;;;;15.55;9.30;;;;;;;;;;5074231;28;20028;-73
2021/08/31 00:41:06;;;;;;;16.50;9.65;;;;;;;;;;5075750;28;20024;-74
2021/08/31 00:43:51;;;;;;;16.13;9.88;;;;;;;;;;5075425;28;20107;-76
2021/08/31 00:46:19;;;;;;;14.93;8.95;;;;;;;;;;5075720;28;20032;-73
2021/08/31 00:48:45;;;;;;;17.02;9.65;;;;;;;;;;5075596;28;20031;-75
2021/08/31 00:51:12;;;;;;;16.45;10.25;;;;;;;;;;5075546;28;20443;-73
2021/08/31 00:53:38;;;;;;;15.57;9.57;;;;;;;;;;5075186;28;20044;-73
2021/08/31 00:56:05;;;;;;;16.25;9.70;;;;;;;;;;5075368;28;20056;-75
2021/08/31 00:58:35;;;;;;;14.00;8.88;;;;;;;;;;5073765;28;20047;-76
2021/08/31 01:01:02;;;;;;;16.92;9.25;;;;;;;;;;5075114;28;20405;-75
2021/08/31 01:03:28;;;;;;;14.35;8.95;;;;;;;;;;5073782;28;20021;-73
2021/08/31 01:05:56;;;;;;;18.35;9.90;;;;;;;;;;5075075;28;20070;-73
2021/08/31 01:08:22;;;;;;;14.20;9.23;;;;;;;;;;5074973;28;20060;-73
2021/08/31 01:10:48;;;;;;;14.88;9.38;;;;;;;;;;5074920;28;20029;-74
2021/08/31 01:13:15;;;;;;;14.82;9.38;;;;;;;;;;5075099;28;20028;-73
2021/08/31 01:15:43;;;;;;;15.70;8.70;;;;;;;;;;5074665;28;20416;-75
2021/08/31 01:18:15;;;;;;;12.95;8.65;;;;;;;;;;5074985;28;20020;-73
2021/08/31 01:20:41;;;;;;;14.70;9.15;;;;;;;;;;5074939;28;20039;-71
2021/08/31 01:23:07;;;;;;;17.55;9.70;;;;;;;;;;5074614;28;20029;-73
2021/08/31 01:25:33;;;;;;;17.05;9.52;;;;;;;;;;5074556;28;20028;-76
2021/08/31 01:27:59;;;;;;;14.93;8.60;;;;;;;;;;5074527;28;20031;-72
2021/08/31 01:30:25;;;;;;;15.35;9.45;;;;;;;;;;5074477;28;20024;-74
2021/08/31 01:32:51;;;;;;;13.65;8.95;;;;;;;;;;5074461;28;20027;-72
2021/08/31 01:35:17;;;;;;;19.85;8.82;;;;;;;;;;5074429;28;20389;-74
2021/08/31 01:37:43;;;;;;;13.57;8.77;;;;;;;;;;5074269;28;20024;-71
2021/08/31 01:40:10;;;;;;;18.75;10.30;;;;;;;;;;5074271;28;20025;-71
2021/08/31 01:42:36;;;;;;;13.15;9.25;;;;;;;;;;5072936;28;20371;-74
2021/08/31 01:45:02;;;;;;;13.48;8.82;;;;;;;;;;5074171;28;20107;-74
2021/08/31 01:47:28;;;;;;;13.75;8.40;;;;;;;;;;5074158;28;20020;-73
2021/08/31 01:49:53;;;;;;;13.75;8.95;;;;;;;;;;5074075;28;20032;-76
2021/08/31 01:52:19;;;;;;;15.68;9.43;;;;;;;;;;5074061;28;20058;-72
2021/08/31 01:54:45;;;;;;;16.75;9.27;;;;;;;;;;5074284;28;20024;-71
2021/08/31 01:57:11;;;;;;;17.52;9.00;;;;;;;;;;5072626;28;20028;-73
2021/08/31 01:59:37;;;;;;;16.90;9.50;;;;;;;;;;5073881;28;20016;-74
2021/08/31 02:02:03;;;;;;;14.65;9.55;;;;;;;;;;5073875;28;20105;-74
2021/08/31 02:04:32;;;;;;;19.08;9.77;;;;;;;;;;5074104;28;20078;-74
2021/08/31 02:06:59;;;;;;;17.33;9.85;;;;;;;;;;5073686;28;20448;-74
2021/08/31 02:09:25;;;;;;;18.60;9.85;;;;;;;;;;5073774;28;20024;-76
2021/08/31 02:11:51;;;;;;;14.48;9.05;;;;;;;;;;5073708;28;20035;-72
2021/08/31 02:14:17;;;;;;;15.85;10.88;;;;;;;;;;5072371;28;20028;-73
2021/08/31 02:16:43;;;;;;;18.85;11.60;;;;;;;;;;5073507;28;20024;-73
2021/08/31 02:19:09;;;;;;;14.50;9.77;;;;;;;;;;5073865;28;20021;-74
2021/08/31 02:21:35;;;;;;;17.30;10.25;;;;;;;;;;5073844;28;20078;-76
2021/08/31 02:24:01;;;;;;;15.75;9.77;;;;;;;;;;5073471;28;20032;-74
2021/08/31 02:26:30;;;;;;;16.25;10.27;;;;;;;;;;5073109;28;20025;-70
2021/08/31 02:28:56;;;;;;;15.75;9.73;;;;;;;;;;5073513;28;20485;-72
2021/08/31 02:31:22;;;;;;;13.95;9.30;;;;;;;;;;5072142;28;20387;-71
2021/08/31 02:33:48;;;;;;;14.45;8.93;;;;;;;;;;5073359;28;20035;-73
2021/08/31 02:36:14;;;;;;;17.55;10.25;;;;;;;;;;5073293;28;20432;-74
2021/08/31 02:38:40;;;;;;;14.65;9.70;;;;;;;;;;5073318;28;20548;-71
2021/08/31 02:41:06;;;;;;;14.23;9.32;;;;;;;;;;5073298;28;20060;-73
2021/08/31 02:43:32;;;;;;;15.25;9.82;;;;;;;;;;5073286;28;20029;-74
2021/08/31 02:45:58;;;;;;;15.27;9.85;;;;;;;;;;5071929;28;20024;-72
2021/08/31 02:48:24;;;;;;;14.43;9.30;;;;;;;;;;5071957;28;20035;-74
2021/08/31 02:50:50;;;;;;;13.85;8.88;;;;;;;;;;5073194;28;20391;-74
2021/08/31 02:53:16;;;;;;;14.15;9.50;;;;;;;;;;5073211;28;20051;-74
2021/08/31 02:55:43;;;;;;;16.92;8.93;;;;;;;;;;5073365;28;20029;-71
2021/08/31 02:58:09;;;;;;;14.18;9.68;;;;;;;;;;5073059;28;20024;-73
2021/08/31 03:00:37;;;;;;;17.63;9.27;;;;;;;;;;5073347;28;20025;-75
2021/08/31 03:03:04;;;;;;;16.70;9.00;;;;;;;;;;5073057;28;20017;-74
2021/08/31 03:05:30;;;;;;;17.25;9.82;;;;;;;;;;5073644;28;20053;-72
2021/08/31 03:07:56;;;;;;;12.68;9.35;;;;;;;;;;5072869;28;20532;-74
2021/08/31 03:10:23;;;;;;;16.52;9.23;;;;;;;;;;5073273;28;20067;-71
2021/08/31 03:12:49;;;;;;;14.75;8.82;;;;;;;;;;5071696;28;20398;-72
2021/08/31 03:15:15;;;;;;;16.52;9.73;;;;;;;;;;5072932;28;20033;-73
2021/08/31 03:17:41;;;;;;;16.48;8.75;;;;;;;;;;5072885;28;20498;-72
2021/08/31 03:20:08;;;;;;;15.52;9.65;;;;;;;;;;5072907;28;20455;-74
2021/08/31 03:22:34;;;;;;;13.68;9.05;;;;;;;;;;5073143;28;20016;-74
2021/08/31 03:25:00;;;;;;;14.07;8.38;;;;;;;;;;5073148;28;20021;-75
2021/08/31 03:27:26;;;;;;;14.23;8.38;;;;;;;;;;5072916;28;20094;-73
2021/08/31 03:29:52;;;;;;;17.05;8.93;;;;;;;;;;5072831;28;20478;-72
2021/08/31 03:32:18;;;;;;;13.75;8.60;;;;;;;;;;5072829;28;20021;-72
2021/08/31 03:34:44;;;;;;;13.45;8.60;;;;;;;;;;5073005;28;20055;-74
2021/08/31 03:37:10;;;;;;;16.30;8.70;;;;;;;;;;5072667;28;20478;-72
2021/08/31 03:39:36;;;;;;;12.68;8.85;;;;;;;;;;5075625;28;20025;-71
2021/08/31 03:42:03;;;;;;;13.63;8.77;;;;;;;;;;5076848;28;20056;-72
2021/08/31 03:44:29;;;;;;;15.55;8.65;;;;;;;;;;5076534;28;20366;-72
2021/08/31 03:46:55;;;;;;;12.98;8.27;;;;;;;;;;5076496;28;20103;-71
2021/08/31 03:49:21;;;;;;;15.95;8.30;;;;;;;;;;5076436;28;20501;-73
2021/08/31 03:51:47;;;;;;;16.65;8.80;;;;;;;;;;5076387;28;20025;-75
2021/08/31 03:54:13;;;;;;;13.90;8.40;;;;;;;;;;5076339;28;20043;-74
2021/08/31 03:56:39;;;;;;;11.55;7.80;;;;;;;;;;5076491;28;20025;-75
2021/08/31 03:59:05;;;;;;;14.25;8.50;;;;;;;;;;5076132;28;20424;-71
2021/08/31 04:01:31;;;;;;;13.73;8.27;;;;;;;;;;5076197;28;20075;-76
2021/08/31 04:03:57;;;;;;;15.30;8.55;;;;;;;;;;5076211;28;20025;-73
2021/08/31 04:06:23;;;;;;;15.57;8.63;;;;;;;;;;5075915;28;20049;-74
2021/08/31 04:08:49;;;;;;;14.45;8.70;;;;;;;;;;5076087;28;20029;-75
2021/08/31 04:11:15;;;;;;;13.38;8.80;;;;;;;;;;5076072;28;20031;-75
2021/08/31 04:13:42;;;;;;;11.90;7.95;;;;;;;;;;5075994;28;20078;-73
2021/08/31 04:16:08;;;;;;;12.45;7.70;;;;;;;;;;5075912;28;20017;-72
2021/08/31 04:18:34;;;;;;;17.33;8.85;;;;;;;;;;5076184;28;20035;-74
2021/08/31 04:21:00;;;;;;;16.23;8.68;;;;;;;;;;5076148;28;20020;-73
2021/08/31 04:23:26;;;;;;;12.25;8.63;;;;;;;;;;5076114;28;20036;-75
2021/08/31 04:25:52;;;;;;;13.10;8.82;;;;;;;;;;5076059;28;20385;-73
2021/08/31 04:28:18;;;;;;;13.43;8.90;;;;;;;;;;5075694;28;20024;-71
2021/08/31 04:30:44;;;;;;;13.27;9.20;;;;;;;;;;5075669;28;20554;-73
2021/08/31 04:33:10;;;;;;;13.25;8.38;;;;;;;;;;5075635;28;20393;-75
2021/08/31 04:35:36;;;;;;;14.38;8.82;;;;;;;;;;5075574;28;20020;-73
2021/08/31 04:38:02;;;;;;;14.82;9.27;;;;;;;;;;5075494;28;20035;-74
2021/08/31 04:40:28;;;;;;;15.55;9.15;;;;;;;;;;5075548;28;20020;-75
2021/08/31 04:42:54;;;;;;;12.35;8.27;;;;;;;;;;5075481;28;20031;-72
2021/08/31 04:45:20;;;;;;;13.63;9.02;;;;;;;;;;5074179;28;20020;-75
2021/08/31 04:47:46;;;;;;;11.60;8.13;;;;;;;;;;5075331;28;20034;-71
2021/08/31 04:50:12;;;;;;;11.55;8.32;;;;;;;;;;5075001;28;20024;-75
2021/08/31 04:52:38;;;;;;;12.60;9.00;;;;;;;;;;5075564;28;20382;-72
2021/08/31 04:55:04;;;;;;;11.95;8.18;;;;;;;;;;5075203;28;20025;-73
2021/08/31 04:57:30;;;;;;;14.00;9.35;;;;;;;;;;5075089;28;20028;-73
2021/08/31 04:59:56;;;;;;;15.00;8.95;;;;;;;;;;5075044;28;20425;-73
2021/08/31 05:02:22;;;;;;;13.88;8.98;;;;;;;;;;5073739;28;20024;-74
2021/08/31 05:04:48;;;;;;;15.40;8.27;;;;;;;;;;5075070;28;20367;-71
2021/08/31 05:07:14;;;;;;;12.65;8.13;;;;;;;;;;5074778;28;20203;-73
2021/08/31 05:09:41;;;;;;;12.93;7.97;;;;;;;;;;5075250;28;20079;-73
2021/08/31 05:12:07;;;;;;;11.00;7.47;;;;;;;;;;5074879;28;20093;-74
2021/08/31 05:14:34;;;;;;;12.68;8.02;;;;;;;;;;5074836;28;20029;-72
2021/08/31 05:17:00;;;;;;;11.38;7.75;;;;;;;;;;5074994;28;20485;-71
2021/08/31 05:19:27;;;;;;;11.25;7.78;;;;;;;;;;5074726;28;20549;-75
2021/08/31 05:21:53;;;;;;;12.35;7.82;;;;;;;;;;5074969;28;20021;-73
2021/08/31 05:24:19;;;;;;;11.15;7.47;;;;;;;;;;5074914;28;20381;-73
2021/08/31 05:26:45;;;;;;;11.50;7.43;;;;;;;;;;5074570;28;20098;-74
2021/08/31 05:29:11;;;;;;;10.52;7.03;;;;;;;;;;5074845;28;20031;-73
2021/08/31 05:31:37;;;;;;;12.25;7.40;;;;;;;;;;5074054;28;20032;-74
2021/08/31 05:34:03;;;;;;;11.05;7.28;;;;;;;;;;5074388;28;20025;-72
2021/08/31 05:36:29;;;;;;;10.93;7.40;;;;;;;;;;5074475;28;20107;-73
2021/08/31 05:38:55;;;;;;;10.77;6.78;;;;;;;;;;5074668;28;20027;-73
2021/08/31 05:41:21;;;;;;;14.57;7.38;;;;;;;;;;5074278;28;20479;-73
2021/08/31 05:43:47;;;;;;;14.15;7.03;;;;;;;;;;5074246;28;20103;-73
2021/08/31 05:46:13;;;;;;;13.82;7.28;;;;;;;;;;5074200;28;20024;-71
2021/08/31 05:48:39;;;;;;;16.13;6.47;;;;;;;;;;5074170;28;20025;-72
2021/08/31 05:51:08;;;;;;;14.40;7.53;;;;;;;;;;5074349;28;20024;-73
2021/08/31 05:53:34;;;;;;;11.70;6.82;;;;;;;;;;5074372;28;20020;-73
2021/08/31 05:56:00;;;;;;;12.68;6.78;;;;;;;;;;5073956;28;20100;-72
2021/08/31 05:58:26;;;;;;;9.40;6.15;;;;;;;;;;5074206;28;20103;-72
2021/08/31 06:00:52;;;;;;;9.95;6.30;;;;;;;;;;5073383;28;20051;-72
2021/08/31 06:03:18;;;;;;;13.07;6.45;;;;;;;;;;5073769;28;20025;-73
2021/08/31 06:05:44;;;;;;;15.00;6.20;;;;;;;;;;5073882;28;20058;-71
2021/08/31 06:08:10;;;;;;;11.35;6.03;;;;;;;;;;5074098;28;20099;-74
2021/08/31 06:10:36;;;;;;;14.73;7.43;;;;;;;;;;5073727;28;20099;-74
2021/08/31 06:13:02;;;;;;;14.40;6.65;;;;;;;;;;5073706;28;20028;-72
2021/08/31 06:15:29;;;;;;;12.50;6.80;;;;;;;;;;5073670;28;20394;-75
2021/08/31 06:17:55;;;;;;;9.30;5.88;;;;;;;;;;5073567;28;20128;-72
2021/08/31 06:20:21;;;;;;;12.30;6.10;;;;;;;;;;5073902;28;20025;-72
2021/08/31 06:22:47;;;;;;;11.60;6.85;;;;;;;;;;5073527;28;20435;-73
2021/08/31 06:25:13;;;;;;;15.10;6.30;;;;;;;;;;5073515;28;20029;-71
2021/08/31 06:27:39;;;;;;;12.38;6.55;;;;;;;;;;5073502;28;20070;-75
2021/08/31 06:30:05;;;;;;;12.45;6.45;;;;;;;;;;5073727;28;20029;-71
2021/08/31 06:32:31;;;;;;;10.40;6.40;;;;;;;;;;5073424;28;20040;-71
2021/08/31 06:34:57;;;;;;;11.80;6.05;;;;;;;;;;5073421;28;20025;-71
2021/08/31 06:37:23;;;;;;;11.27;6.15;;;;;;;;;;5073550;28;20107;-72
2021/08/31 06:39:49;;;;;;;15.00;6.43;;;;;;;;;;5073869;28;20016;-75
2021/08/31 06:42:15;;;;;;;10.35;5.80;;;;;;;;;;5073316;28;20501;-74
2021/08/31 06:44:43;;;;;;;10.50;5.78;;;;;;;;;;5073292;28;20060;-72
2021/08/31 06:47:09;;;;;;;12.00;5.90;;;;;;;;;;5073281;28;20070;-72
2021/08/31 06:49:35;;;;;;;10.15;6.53;;;;;;;;;;5073506;28;20052;-75
2021/08/31 06:52:02;;;;;;;13.93;6.47;;;;;;;;;;5073209;28;20110;-72
2021/08/31 06:54:30;;;;;;;11.50;6.15;;;;;;;;;;5073191;28;20056;-73
2021/08/31 06:56:56;;;;;;;10.70;6.22;;;;;;;;;;5073051;28;20016;-72
2021/08/31 06:59:22;;;;;;;12.50;6.60;;;;;;;;;;5073041;28;20021;-73
2021/08/31 07:01:48;;;;;;;11.65;5.80;;;;;;;;;;5073090;28;20493;-72
2021/08/31 07:04:14;;;;;;;13.23;6.78;;;;;;;;;;5073312;28;20063;-75
2021/08/31 07:06:40;;;;;;;10.52;6.18;;;;;;;;;;5073029;28;20040;-73
2021/08/31 07:09:06;;;;;;;12.50;6.28;;;;;;;;;;5073325;28;20083;-74
2021/08/31 07:11:32;;;;;;;13.13;6.53;;;;;;;;;;5073043;28;20034;-74
2021/08/31 07:13:58;;;;;;;8.98;5.78;;;;;;;;;;5075165;28;20091;-73
2021/08/31 07:16:24;;;;;;;10.05;5.78;;;;;;;;;;5077279;28;20114;-74
2021/08/31 07:18:50;;;;;;;14.23;6.05;;;;;;;;;;5077021;28;20486;-75
2021/08/31 07:21:16;;;;;;;11.90;5.63;;;;;;;;;;5077019;28;20087;-73
2021/08/31 07:23:42;;;;;;;11.93;5.20;;;;;;;;;;5076969;28;20017;-75
2021/08/31 07:26:08;;;;;;;9.10;4.85;;;;;;;;;;5076926;28;20108;-73
2021/08/31 07:28:34;;;;;;;9.15;4.90;;;;;;;;;;5076931;28;20056;-74
2021/08/31 07:31:00;;;;;;;10.38;5.07;;;;;;;;;;5077132;28;20074;-73
2021/08/31 07:33:26;;;;;;;11.75;5.70;;;;;;;;;;5077064;28;20025;-75
2021/08/31 07:35:52;;;;;;;11.70;4.90;;;;;;;;;;5076698;28;20028;-76
2021/08/31 07:38:18;;;;;;;10.57;4.75;;;;;;;;;;5076960;28;20029;-75
2021/08/31 07:40:44;;;;;;;8.65;4.60;;;;;;;;;;5075352;28;20540;-72
2021/08/31 07:43:11;;;;;;;9.57;4.45;;;;;;;;;;5077192;28;20028;-72
2021/08/31 07:45:37;;;;;;;9.35;3.75;;;;;;;;;;5076813;28;20021;-72
2021/08/31 07:48:03;;;;;;;9.02;4.10;;;;;;;;;;5076702;28;20032;-76
2021/08/31 07:50:29;;;;;;;10.93;3.80;;;;;;;;;;5076443;28;20025;-74
2021/08/31 07:52:55;;;;;;;7.35;3.22;;;;;;;;;;5076125;28;20024;-74
2021/08/31 07:55:21;;;;;;;9.07;4.43;;;;;;;;;;5076608;28;20070;-75
2021/08/31 07:57:47;;;;;;;9.15;4.25;;;;;;;;;;5076418;28;20539;-72
2021/08/31 08:00:15;;;;;;;9.48;4.20;;;;;;;;;;5076236;28;20505;-73
2021/08/31 08:02:41;;;;;;;10.07;4.38;;;;;;;;;;5076493;28;20021;-74
2021/08/31 08:05:07;;;;;;;11.32;4.55;;;;;;;;;;5076676;28;20021;-75
2021/08/31 08:07:33;;;;;;;10.45;4.38;;;;;;;;;;5075752;28;20056;-78
2021/08/31 08:09:59;;;;;;;10.55;4.55;;;;;;;;;;5076074;28;20032;-77
2021/08/31 08:12:26;;;;;;;9.88;4.65;;;;;;;;;;5076556;28;20059;-72
2021/08/31 08:14:52;;;;;;;9.13;5.07;;;;;;;;;;5075986;28;20052;-73
2021/08/31 08:17:18;;;;;;;11.32;5.40;;;;;;;;;;5075223;28;20058;-72
2021/08/31 08:19:45;;;;;;;9.70;5.10;;;;;;;;;;5075311;28;20025;-71
2021/08/31 08:22:11;;;;;;;11.38;4.82;;;;;;;;;;5075284;28;20491;-73
2021/08/31 08:24:37;;;;;;;10.13;4.15;;;;;;;;;;5074434;28;20023;-72
2021/08/31 08:27:03;;;;;;;10.13;4.35;;;;;;;;;;5075141;28;20093;-72
2021/08/31 08:29:30;;;;;;;8.07;3.80;;;;;;;;;;5075675;28;20028;-72
2021/08/31 08:31:56;;;;;;;8.85;4.38;;;;;;;;;;5075689;28;20028;-72
2021/08/31 08:34:24;;;;;;;9.63;3.53;;;;;;;;;;5075636;28;20091;-73
2021/08/31 08:36:50;;;;;;;10.38;4.00;;;;;;;;;;5075545;28;20060;-73
2021/08/31 08:39:16;;;;;;;8.20;4.25;;;;;;;;;;5075534;28;20017;-72
2021/08/31 08:41:43;;;;;;;12.00;4.53;;;;;;;;;;5076041;28;20020;-72
2021/08/31 08:44:09;;;;;;;9.05;3.88;;;;;;;;;;5075442;28;20017;-72
2021/08/31 08:46:35;;;;;;;10.75;4.35;;;;;;;;;;5075952;28;20024;-73
2021/08/31 08:49:02;;;;;;;9.05;3.85;;;;;;;;;;5075650;28;20032;-71
2021/08/31 08:51:28;;;;;;;10.50;4.32;;;;;;;;;;5075364;28;20060;-72
2021/08/31 08:53:54;;;;;;;9.07;4.13;;;;;;;;;;5075558;28;20074;-72
2021/08/31 08:56:20;;;;;;;10.68;4.05;;;;;;;;;;5075199;28;20032;-71
2021/08/31 08:58:47;;;;;;;6.88;3.72;;;;;;;;;;5075159;28;20111;-72
2021/08/31 09:01:13;;;;;;;9.63;4.20;;;;;;;;;;5075186;28;20025;-72
2021/08/31 09:03:41;;;;;;;9.80;4.20;;;;;;;;;;5075137;28;20070;-72
2021/08/31 09:06:07;;;;;;;9.10;4.38;;;;;;;;;;5074854;28;20036;-73
2021/08/31 09:08:33;;;;;;;8.60;4.20;;;;;;;;;;5075290;28;20063;-73
2021/08/31 09:10:59;;;;;;;8.73;3.88;;;;;;;;;;5075234;28;20028;-72
2021/08/31 09:13:25;;;;;;;8.07;4.30;;;;;;;;;;5073625;28;20029;-73
2021/08/31 09:15:51;;;;;;;7.32;4.10;;;;;;;;;;5074880;28;20021;-72
2021/08/31 09:18:19;;;;;;;8.15;4.40;;;;;;;;;;5074842;28;20108;-72
2021/08/31 09:20:54;;;;;;;8.80;4.18;;;;;;;;;;5075017;28;20091;-72
2021/08/31 09:23:21;;;;;;;7.78;4.47;;;;;;;;;;5073447;28;20028;-72
2021/08/31 09:25:49;;;;;;;9.02;4.35;;;;;;;;;;5074966;28;20100;-73
2021/08/31 09:28:21;;;;;;;10.35;4.10;;;;;;;;;;5074507;28;20107;-72
2021/08/31 09:30:56;;;;;;;7.55;3.95;;;;;;;;;;5074866;28;20035;-72
2021/08/31 09:33:22;;;;;;;9.02;3.92;;;;;;;;;;5075079;28;20028;-72
2021/08/31 09:36:09;;;;;;;6.85;4.25;;;;;;;;;;5073587;28;20528;-72
2021/08/31 09:38:39;;;;;;;7.30;4.18;;;;;;;;;;5073113;28;20029;-73
2021/08/31 09:41:05;;;;;;;6.88;3.85;;;;;;;;;;5074865;28;20070;-72
2021/08/31 09:43:31;;;;;;;7.38;3.78;;;;;;;;;;5074542;28;20024;-73
2021/08/31 09:45:57;;;;;;;8.25;4.40;;;;;;;;;;5074410;28;20091;-73
2021/08/31 09:48:23;;;;;;;9.13;4.28;;;;;;;;;;5074159;28;20108;-72
2021/08/31 09:50:54;;;;;;;6.95;3.50;;;;;;;;;;5074160;28;20021;-72
2021/08/31 09:53:24;;;;;;;10.00;4.03;;;;;;;;;;5074074;28;20020;-73
2021/08/31 09:55:51;;;;;;;6.95;3.83;;;;;;;;;;5074074;28;20017;-73
2021/08/31 09:58:21;;;;;;;7.82;3.92;;;;;;;;;;5074280;28;20035;-72
2021/08/31 10:00:47;;;;;;;8.23;4.30;;;;;;;;;;5073945;28;20029;-72
2021/08/31 10:03:14;;;;;;;6.90;3.67;;;;;;;;;;5073909;28;20024;-72
2021/08/31 10:05:41;;;;;;;7.75;3.83;;;;;;;;;;5073880;28;20025;-73
2021/08/31 10:08:07;;;;;;;7.18;3.55;;;;;;;;;;5074061;28;20039;-73
2021/08/31 10:10:34;;;;;;;9.15;4.47;;;;;;;;;;5074314;28;20031;-72
2021/08/31 10:13:11;;;;;;;7.00;3.92;;;;;;;;;;5073754;28;20039;-73
2021/08/31 10:15:39;;;;;;;8.48;3.95;;;;;;;;;;5074255;28;20016;-72
2021/08/31 10:18:06;;;;;;;11.02;4.22;;;;;;;;;;5073910;28;20024;-72
2021/08/31 10:20:32;;;;;;;9.25;4.35;;;;;;;;;;5073600;28;20528;-73
2021/08/31 10:23:02;;;;;;;8.27;4.20;;;;;;;;;;5073568;28;20436;-72
2021/08/31 10:25:28;;;;;;;8.48;4.00;;;;;;;;;;5073554;28;20025;-72
2021/08/31 10:27:58;;;;;;;7.85;4.40;;;;;;;;;;5073450;28;20025;-72
2021/08/31 10:30:35;;;;;;;8.70;4.22;;;;;;;;;;5073782;28;20028;-72
2021/08/31 10:33:02;;;;;;;8.55;4.03;;;;;;;;;;5071883;28;20563;-73
2021/08/31 10:37:57;;;;;;;9.87;4.13;;;;;;;;;;5073410;28;20032;-72
2021/08/31 10:40:33;;;;;;;11.55;4.10;;;;;;;;;;5073294;28;20029;-73
2021/08/31 10:43:00;;;;;;;10.45;5.10;;;;;;;;;;5073565;28;20521;-73
2021/08/31 10:45:28;;;;;;;7.18;4.13;;;;;;;;;;5073257;28;20028;-72
2021/08/31 10:47:54;;;;;;;8.35;4.65;;;;;;;;;;5072865;28;20025;-74
2021/08/31 10:50:21;;;;;;;9.02;4.38;;;;;;;;;;5073259;28;20060;-73
2021/08/31 10:52:50;;;;;;;8.15;3.80;;;;;;;;;;5073187;28;20021;-72
2021/08/31 10:55:19;;;;;;;7.90;4.30;;;;;;;;;;5073500;28;20450;-72
2021/08/31 10:57:45;;;;;;;8.90;3.92;;;;;;;;;;5073689;28;20081;-73
2021/08/31 11:00:17;;;;;;;10.07;4.47;;;;;;;;;;5073666;28;20072;-72
2021/08/31 11:02:47;;;;;;;8.90;4.47;;;;;;;;;;5073095;28;20029;-73
2021/08/31 11:05:19;;;;;;;11.15;4.22;;;;;;;;;;5073033;28;20055;-72
2021/08/31 11:08:05;;;;;;;8.68;4.25;;;;;;;;;;5072842;28;20051;-72
2021/08/31 11:10:36;;;;;;;9.05;4.38;;;;;;;;;;5072785;28;20044;-72
2021/08/31 11:13:18;;;;;;;8.57;4.40;;;;;;;;;;5073621;28;20052;-72
2021/08/31 11:15:47;;;;;;;8.63;4.40;;;;;;;;;;5073543;28;20488;-72
2021/08/31 11:18:13;;;;;;;8.73;4.85;;;;;;;;;;5073232;28;20024;-72
2021/08/31 11:20:40;;;;;;;8.93;4.15;;;;;;;;;;5072974;28;20086;-72
2021/08/31 11:23:08;;;;;;;12.27;4.97;;;;;;;;;;5072917;28;20029;-73
2021/08/31 11:25:34;;;;;;;10.32;4.72;;;;;;;;;;5072930;28;20025;-72
2021/08/31 11:28:05;;;;;;;8.75;4.07;;;;;;;;;;5072843;28;20432;-73
2021/08/31 11:30:47;;;;;;;9.48;4.22;;;;;;;;;;5072880;28;20024;-72
2021/08/31 11:33:15;;;;;;;9.38;4.50;;;;;;;;;;5073134;28;20471;-73
2021/08/31 11:35:41;;;;;;;9.60;4.13;;;;;;;;;;5072853;28;20036;-73
2021/08/31 11:38:08;;;;;;;8.48;3.90;;;;;;;;;;5073061;28;20035;-72
2021/08/31 11:40:34;;;;;;;10.10;4.47;;;;;;;;;;5071512;28;20440;-72
2021/08/31 11:43:00;;;;;;;11.02;5.00;;;;;;;;;;5073030;28;20059;-72
2021/08/31 11:45:37;;;;;;;9.63;4.63;;;;;;;;;;5072995;28;20059;-72
2021/08/31 11:48:03;;;;;;;8.40;4.57;;;;;;;;;;5072576;28;20448;-73
2021/08/31 11:50:29;;;;;;;8.13;4.07;;;;;;;;;;5071378;28;20078;-72
2021/08/31 11:52:55;;;;;;;8.32;4.13;;;;;;;;;;5072889;28;20017;-72
2021/08/31 11:55:28;;;;;;;12.98;5.00;;;;;;;;;;5072886;28;20031;-73
2021/08/31 11:58:02;;;;;;;8.50;3.80;;;;;;;;;;5072504;28;20017;-72
2021/08/31 12:00:39;;;;;;;7.10;4.47;;;;;;;;;;5075200;28;20145;-72
2021/08/31 12:03:17;;;;;;;7.78;3.97;;;;;;;;;;5076583;28;20028;-72
2021/08/31 12:05:43;;;;;;;16.58;4.60;;;;;;;;;;5076259;28;20034;-73
2021/08/31 12:08:09;;;;;;;8.90;4.45;;;;;;;;;;5076397;28;20032;-72
2021/08/31 12:10:35;;;;;;;10.52;4.30;;;;;;;;;;5074818;28;20401;-73
2021/08/31 12:13:01;;;;;;;10.43;4.68;;;;;;;;;;5076044;28;20024;-72
2021/08/31 12:15:27;;;;;;;12.30;4.65;;;;;;;;;;5076286;28;20496;-73
2021/08/31 12:18:01;;;;;;;10.10;4.38;;;;;;;;;;5076007;28;20024;-72
2021/08/31 12:20:27;;;;;;;9.32;4.38;;;;;;;;;;5076222;28;20029;-73
2021/08/31 12:22:55;;;;;;;8.70;4.60;;;;;;;;;;5076392;28;20021;-73
2021/08/31 12:25:21;;;;;;;8.68;4.32;;;;;;;;;;5076138;28;20029;-71
2021/08/31 12:27:51;;;;;;;10.65;4.55;;;;;;;;;;5076258;28;20024;-71
2021/08/31 12:30:18;;;;;;;8.35;4.22;;;;;;;;;;5076013;28;20097;-72
2021/08/31 12:32:53;;;;;;;9.77;4.25;;;;;;;;;;5074427;28;20082;-71
2021/08/31 12:35:26;;;;;;;8.02;4.40;;;;;;;;;;5076249;28;20432;-72
2021/08/31 12:38:05;;;;;;;7.97;4.05;;;;;;;;;;5075645;28;20055;-71
2021/08/31 12:40:34;;;;;;;8.15;3.83;;;;;;;;;;5074339;28;20059;-72
2021/08/31 12:43:05;;;;;;;9.65;5.25;;;;;;;;;;5075814;28;20359;-71
2021/08/31 12:45:33;;;;;;;10.95;4.70;;;;;;;;;;5075750;28;20025;-71
2021/08/31 12:47:59;;;;;;;8.77;4.13;;;;;;;;;;5075399;28;20020;-72
2021/08/31 12:50:25;;;;;;;7.13;4.13;;;;;;;;;;5075388;28;20488;-71
2021/08/31 12:53:01;;;;;;;8.38;4.65;;;;;;;;;;5075365;28;20390;-72
2021/08/31 12:55:31;;;;;;;8.48;4.60;;;;;;;;;;5075921;28;20028;-71
2021/08/31 12:57:57;;;;;;;;;;;;;;;;;;5076358;28;20017;-72
2021/08/31 13:00:25;;;;;;;11.63;4.45;;;;;;;;;;5075459;28;19912;-71
2021/08/31 13:02:53;;;;;;;7.47;3.92;;;;;;;;;;5075100;28;20056;-71
2021/08/31 13:05:20;;;;;;;8.68;4.65;;;;;;;;;;5075095;28;20028;-72
2021/08/31 13:07:46;;;;;;;9.18;4.20;;;;;;;;;;5074559;28;20052;-71
2021/08/31 13:10:17;;;;;;;8.57;4.60;;;;;;;;;;5075064;28;20508;-72
2021/08/31 13:12:45;;;;;;;8.48;4.28;;;;;;;;;;5074998;28;20028;-71
2021/08/31 13:15:11;;;;;;;13.07;4.93;;;;;;;;;;5075219;28;20025;-72
2021/08/31 13:17:37;;;;;;;8.88;4.28;;;;;;;;;;5073590;28;20085;-71
2021/08/31 13:20:03;;;;;;;8.95;4.40;;;;;;;;;;5074803;28;20025;-72
2021/08/31 13:22:29;;;;;;;9.52;4.43;;;;;;;;;;5075081;28;20029;-72
2021/08/31 13:24:55;;;;;;;8.95;4.25;;;;;;;;;;5074973;28;20382;-72
2021/08/31 13:27:22;;;;;;;8.30;4.07;;;;;;;;;;5075132;28;20032;-72
2021/08/31 13:29:47;;;;;;;6.53;4.00;;;;;;;;;;5074594;28;20020;-73
2021/08/31 13:32:14;;;;;;;6.88;4.05;;;;;;;;;;5074855;28;20020;-72
2021/08/31 13:34:40;;;;;;;9.75;5.18;;;;;;;;;;5074566;28;20478;-71
2021/08/31 13:37:06;;;;;;;7.50;4.32;;;;;;;;;;5074470;28;20055;-72
2021/08/31 13:39:32;;;;;;;7.10;4.50;;;;;;;;;;5074403;28;20057;-72
2021/08/31 13:41:58;;;;;;;9.20;4.75;;;;;;;;;;5074390;28;20149;-72
2021/08/31 13:44:24;;;;;;;8.95;4.38;;;;;;;;;;5074294;28;20033;-72
2021/08/31 13:46:50;;;;;;;11.13;4.40;;;;;;;;;;5074180;28;20046;-72
2021/08/31 13:49:16;;;;;;;8.75;4.60;;;;;;;;;;5074237;28;20047;-72
2021/08/31 13:51:42;;;;;;;8.85;4.28;;;;;;;;;;5074197;28;20061;-72
2021/08/31 13:54:08;;;;;;;9.50;5.20;;;;;;;;;;5074095;28;20066;-72
2021/08/31 13:56:34;;;;;;;9.82;5.05;;;;;;;;;;5074582;28;20032;-72
2021/08/31 13:59:00;;;;;;;9.38;5.07;;;;;;;;;;5073968;28;20024;-72
2021/08/31 14:01:26;;;;;;;8.95;4.53;;;;;;;;;;5073987;28;20039;-71
2021/08/31 14:03:52;;;;;;;9.20;4.95;;;;;;;;;;5073955;28;20028;-72
2021/08/31 14:06:18;;;;;;;7.88;4.53;;;;;;;;;;5073771;28;20052;-74
2021/08/31 14:08:44;;;;;;;9.95;5.05;;;;;;;;;;5073834;28;20059;-71
2021/08/31 14:11:10;;;;;;;10.10;4.88;;;;;;;;;;5073793;28;20059;-73
2021/08/31 14:13:36;;;;;;;11.23;4.70;;;;;;;;;;5073747;28;20451;-72
2021/08/31 14:16:03;;;;;;;8.88;4.35;;;;;;;;;;5072451;28;20059;-71
2021/08/31 14:18:29;;;;;;;7.47;4.57;;;;;;;;;;5073930;28;20479;-72
2021/08/31 14:20:55;;;;;;;9.80;4.78;;;;;;;;;;5073654;28;20503;-71
2021/08/31 14:23:22;;;;;;;8.00;4.20;;;;;;;;;;5073051;28;20025;-72
2021/08/31 14:25:48;;;;;;;8.63;4.88;;;;;;;;;;5073533;28;20406;-73
2021/08/31 14:28:16;;;;;;;9.30;5.25;;;;;;;;;;5072165;28;20070;-71
2021/08/31 14:30:42;;;;;;;6.40;4.22;;;;;;;;;;5073482;28;20048;-71
2021/08/31 14:33:08;;;;;;;9.90;4.35;;;;;;;;;;5073452;28;20418;-72
2021/08/31 14:35:34;;;;;;;6.32;4.05;;;;;;;;;;5073681;28;20103;-71
2021/08/31 14:38:00;;;;;;;9.82;4.75;;;;;;;;;;5073953;28;20020;-72